Time;durP1;ratioP1;P1;durP2;ratioP2;P2;SDS_P1;SDS_P2;PMS_P1;PMS_P2;Temp;Humidity;BMP_temperature;BMP_pressure;BME280_temperature;BME280_humidity;BME280_pressure;Samples;Min_cycle;Max_cycle;Signal;HPM_P1;HPM_P2
2021/07/12 00:00:07;;;;;;;6.20;2.50;;;;;;;11.97;100.00;93682.69;5074229;28;20207;-75
2021/07/12 00:02:34;;;;;;;3.70;2.43;;;;;;;12.01;100.00;93681.25;5074336;28;20194;-75
2021/07/12 00:05:02;;;;;;;3.93;2.70;;;;;;;12.04;100.00;93675.59;5074230;28;20194;-76
2021/07/12 00:07:28;;;;;;;7.03;2.60;;;;;;;12.05;100.00;93673.78;5074100;28;20203;-76
2021/07/12 00:09:55;;;;;;;3.50;2.50;;;;;;;11.96;100.00;93668.81;5074098;28;20719;-75
2021/07/12 00:12:21;;;;;;;4.20;2.60;;;;;;;11.93;100.00;93663.19;5073895;28;20209;-76
2021/07/12 00:14:48;;;;;;;6.63;2.92;;;;;;;11.88;100.00;93663.00;5073772;28;20875;-77
2021/07/12 00:17:14;;;;;;;3.57;2.60;;;;;;;11.84;100.00;93658.19;5074053;28;20203;-77
2021/07/12 00:19:42;;;;;;;6.47;2.70;;;;;;;11.88;100.00;93655.94;5073826;28;20650;-77
2021/07/12 00:22:09;;;;;;;4.53;2.70;;;;;;;11.89;100.00;93651.50;5074040;28;20199;-76
2021/07/12 00:24:35;;;;;;;4.27;2.60;;;;;;;11.87;100.00;93650.91;5073831;28;20542;-76
2021/07/12 00:27:02;;;;;;;3.73;3.00;;;;;;;11.86;100.00;93650.13;5073501;28;20226;-76
2021/07/12 00:29:28;;;;;;;4.23;3.03;;;;;;;11.82;100.00;93639.28;5072904;28;20218;-76
2021/07/12 00:31:55;;;;;;;11.17;3.03;;;;;;;11.79;100.00;93633.66;5073794;28;20628;-76
2021/07/12 00:34:21;;;;;;;4.70;2.90;;;;;;;11.77;100.00;93630.47;5073780;28;20198;-76
2021/07/12 00:36:49;;;;;;;3.97;2.63;;;;;;;11.79;100.00;93621.41;5073600;28;20252;-76
2021/07/12 00:39:15;;;;;;;3.40;2.50;;;;;;;11.76;100.00;93621.81;5073470;28;20206;-76
2021/07/12 00:41:42;;;;;;;5.70;2.60;;;;;;;11.75;100.00;93620.19;5073427;28;20331;-76
2021/07/12 00:44:08;;;;;;;8.37;2.90;;;;;;;11.68;100.00;93616.84;5073544;28;20569;-76
2021/07/12 00:46:35;;;;;;;3.57;2.30;;;;;;;11.64;100.00;93618.25;5073503;28;20203;-75
2021/07/12 00:49:02;;;;;;;5.70;2.80;;;;;;;11.64;100.00;93613.84;5073528;28;20225;-75
2021/07/12 00:51:28;;;;;;;6.17;2.93;;;;;;;11.65;100.00;93619.88;5073288;28;20272;-75
2021/07/12 00:53:56;;;;;;;4.83;3.20;;;;;;;11.64;100.00;93615.66;5073280;28;20252;-76
2021/07/12 00:56:23;;;;;;;5.87;3.07;;;;;;;11.72;100.00;93620.63;5073082;28;20199;-75
2021/07/12 00:58:49;;;;;;;6.60;3.23;;;;;;;11.69;100.00;93613.22;5073283;28;20203;-76
2021/07/12 01:01:16;;;;;;;6.13;3.00;;;;;;;11.87;100.00;93619.53;5073297;28;20199;-75
2021/07/12 01:03:42;;;;;;;3.70;2.47;;;;;;;11.78;100.00;93619.78;5073209;28;20195;-76
2021/07/12 01:06:09;;;;;;;3.50;2.70;;;;;;;11.74;100.00;93616.00;5073193;28;20268;-76
2021/07/12 01:08:36;;;;;;;4.83;2.90;;;;;;;11.66;100.00;93608.41;5073014;28;20260;-75
2021/07/12 01:11:10;;;;;;;4.27;2.87;;;;;;;11.59;100.00;93612.84;5073138;28;20241;-76
2021/07/12 01:13:43;;;;;;;3.33;2.53;;;;;;;11.54;100.00;93610.91;5073226;28;20198;-75
2021/07/12 01:16:19;;;;;;;4.83;3.03;;;;;;;11.45;100.00;93612.94;5072814;28;20198;-76
2021/07/12 01:18:53;;;;;;;4.10;2.80;;;;;;;11.43;100.00;93604.50;5073016;28;20206;-76
2021/07/12 01:22:03;;;;;;;4.83;3.00;;;;;;;11.42;100.00;93600.31;5072940;28;20650;-76
2021/07/12 01:25:06;;;;;;;6.07;3.40;;;;;;;11.53;100.00;93609.28;5072839;28;20562;-75
2021/07/12 01:28:21;;;;;;;4.43;2.80;;;;;;;11.52;100.00;93609.50;5072863;28;20202;-75
2021/07/12 01:31:20;;;;;;;5.77;3.03;;;;;;;11.56;100.00;93592.38;5040554;28;20258;-77
2021/07/12 01:33:55;;;;;;;9.93;3.13;;;;;;;11.59;100.00;93591.94;5053042;28;20199;-76
2021/07/12 01:36:25;;;;;;;7.50;3.03;;;;;;;11.55;100.00;93602.03;5053010;28;20203;-76
2021/07/12 01:38:59;;;;;;;8.30;3.00;;;;;;;11.52;100.00;93606.88;5052863;28;20249;-76
2021/07/12 01:41:32;;;;;;;5.07;2.60;;;;;;;11.44;100.00;93600.91;5052842;28;20213;-76
2021/07/12 01:44:03;;;;;;;5.13;2.70;;;;;;;11.33;100.00;93598.16;5052660;28;20558;-76
2021/07/12 01:46:36;;;;;;;12.03;2.87;;;;;;;11.28;100.00;93598.75;5052612;28;20576;-76
2021/07/12 01:49:12;;;;;;;6.33;2.97;;;;;;;11.26;100.00;93592.97;5052825;28;20238;-76
2021/07/12 01:51:45;;;;;;;6.30;3.00;;;;;;;11.24;100.00;93590.56;5052670;28;20280;-76
2021/07/12 01:54:19;;;;;;;6.97;2.83;;;;;;;11.20;100.00;93588.56;5052764;28;20261;-76
2021/07/12 01:56:53;;;;;;;5.53;3.00;;;;;;;11.32;100.00;93596.53;5052774;28;20208;-76
2021/07/12 01:59:25;;;;;;;4.97;3.27;;;;;;;11.35;100.00;93599.53;5052693;28;20265;-76
2021/07/12 02:01:53;;;;;;;7.70;3.23;;;;;;;11.30;100.00;93602.75;5052656;28;20211;-76
2021/07/12 02:04:26;;;;;;;6.33;3.60;;;;;;;11.33;100.00;93598.94;5052548;28;20199;-76
2021/07/12 02:06:55;;;;;;;7.80;2.93;;;;;;;11.23;100.00;93603.81;5052483;28;20290;-76
2021/07/12 02:09:23;;;;;;;5.90;2.90;;;;;;;11.19;100.00;93603.44;5055504;28;20203;-76
2021/07/12 02:11:50;;;;;;;4.93;3.10;;;;;;;11.21;100.00;93593.56;5056237;28;20713;-76
2021/07/12 02:14:18;;;;;;;7.17;3.13;;;;;;;11.31;100.00;93598.34;5056454;28;20293;-76
2021/07/12 02:16:46;;;;;;;6.10;3.10;;;;;;;11.24;100.00;93600.19;5056328;28;20208;-76
2021/07/12 02:19:15;;;;;;;6.60;3.53;;;;;;;11.35;100.00;93596.91;5056224;28;20199;-75
2021/07/12 02:21:44;;;;;;;5.93;3.20;;;;;;;11.36;100.00;93592.47;5056156;28;20614;-76
2021/07/12 02:24:15;;;;;;;7.17;3.87;;;;;;;11.33;100.00;93596.31;5055988;28;20249;-75
2021/07/12 02:26:42;;;;;;;5.43;3.43;;;;;;;11.23;100.00;93588.16;5055979;28;20571;-76
2021/07/12 02:29:12;;;;;;;6.97;3.57;;;;;;;11.37;100.00;93586.25;5068042;28;20205;-75
2021/07/12 02:31:40;;;;;;;6.50;3.43;;;;;;;11.33;100.00;93578.03;5075987;28;20226;-75
2021/07/12 02:34:07;;;;;;;8.60;3.10;;;;;;;11.39;100.00;93592.06;5075849;28;20257;-75
2021/07/12 02:36:35;;;;;;;6.17;3.70;;;;;;;11.47;100.00;93584.78;5076038;28;20206;-75
2021/07/12 02:39:05;;;;;;;3.53;2.70;;;;;;;11.37;100.00;93579.19;5076050;28;20268;-76
2021/07/12 02:41:34;;;;;;;4.77;3.07;;;;;;;11.37;100.00;93579.19;5075930;28;20210;-75
2021/07/12 02:44:02;;;;;;;5.13;3.37;;;;;;;11.43;100.00;93578.38;5075862;28;20203;-76
2021/07/12 02:46:30;;;;;;;14.27;3.50;;;;;;;11.43;100.00;93582.81;5075651;28;20203;-75
2021/07/12 02:48:58;;;;;;;5.67;2.87;;;;;;;11.27;100.00;93586.69;5075818;28;20199;-76
2021/07/12 02:51:32;;;;;;;6.13;3.33;;;;;;;11.32;100.00;93581.66;5075653;28;20589;-78
2021/07/12 02:54:02;;;;;;;5.80;3.33;;;;;;;11.51;100.00;93574.72;5075675;28;20202;-76
2021/07/12 02:56:30;;;;;;;6.03;3.17;;;;;;;11.47;100.00;93573.50;5075645;28;20199;-75
2021/07/12 02:58:56;;;;;;;5.90;3.10;;;;;;;11.38;100.00;93564.34;5075426;28;20194;-76
2021/07/12 03:01:23;;;;;;;5.60;2.77;;;;;;;11.33;100.00;93570.19;5075638;28;20198;-75
2021/07/12 03:03:49;;;;;;;5.87;2.80;;;;;;;11.30;100.00;93560.94;5075526;28;20195;-76
2021/07/12 03:06:18;;;;;;;4.47;2.97;;;;;;;11.22;100.00;93555.97;5075445;28;20293;-75
2021/07/12 03:08:54;;;;;;;4.93;3.20;;;;;;;11.13;100.00;93562.47;5075376;28;20203;-76
2021/07/12 03:11:25;;;;;;;5.63;2.60;;;;;;;11.02;100.00;93571.75;5075162;28;20222;-75
2021/07/12 03:13:59;;;;;;;8.13;2.77;;;;;;;10.94;100.00;93574.59;5075135;28;20252;-75
2021/07/12 03:16:27;;;;;;;7.57;2.43;;;;;;;10.81;100.00;93578.06;5075366;28;20206;-75
2021/07/12 03:18:57;;;;;;;4.50;2.97;;;;;;;10.88;100.00;93578.03;5074822;28;20233;-76
2021/07/12 03:21:25;;;;;;;4.67;3.30;;;;;;;10.95;100.00;93578.81;5074741;28;20195;-75
2021/07/12 03:23:54;;;;;;;7.00;3.53;;;;;;;10.98;100.00;93570.56;5074994;28;20430;-77
2021/07/12 03:26:22;;;;;;;5.73;2.90;;;;;;;10.96;100.00;93563.94;5074679;28;20226;-76
2021/07/12 03:28:51;;;;;;;8.30;3.40;;;;;;;11.12;100.00;93566.06;5074800;28;20195;-76
2021/07/12 03:31:24;;;;;;;6.97;3.17;;;;;;;11.17;100.00;93555.00;5074909;28;20230;-75
2021/07/12 03:33:53;;;;;;;7.13;4.37;;;;;;;11.24;100.00;93546.13;5075184;28;20521;-76
2021/07/12 03:36:21;;;;;;;9.13;3.70;;;;;;;11.32;100.00;93542.44;5074802;28;20203;-76
2021/07/12 03:38:48;;;;;;;7.20;3.73;;;;;;;11.29;100.00;93537.63;5074045;28;20446;-76
2021/07/12 03:41:14;;;;;;;3.80;2.80;;;;;;;11.27;100.00;93535.25;5074822;28;20209;-76
2021/07/12 03:43:42;;;;;;;5.30;2.80;;;;;;;11.18;100.00;93530.47;5074574;28;20202;-76
2021/07/12 03:46:09;;;;;;;3.90;2.67;;;;;;;11.07;100.00;93529.31;5074755;28;20764;-76
2021/07/12 03:48:39;;;;;;;7.00;2.53;;;;;;;11.05;100.00;93523.50;5074604;28;20207;-76
2021/07/12 03:51:08;;;;;;;5.07;2.47;;;;;;;11.05;100.00;93526.13;5074425;28;20237;-76
2021/07/12 03:53:35;;;;;;;5.07;2.70;;;;;;;10.91;100.00;93528.00;5074658;28;20206;-76
2021/07/12 03:56:04;;;;;;;5.53;2.97;;;;;;;11.01;100.00;93517.13;5074496;28;20571;-76
2021/07/12 03:58:30;;;;;;;5.57;3.20;;;;;;;11.02;100.00;93514.28;5074418;28;20207;-76
2021/07/12 04:00:57;;;;;;;5.43;3.10;;;;;;;10.95;100.00;93517.94;5074404;28;20581;-76
2021/07/12 04:03:24;;;;;;;5.30;3.10;;;;;;;10.90;100.00;93521.19;5074230;28;20273;-76
2021/07/12 04:05:51;;;;;;;4.93;2.80;;;;;;;10.91;100.00;93517.56;5074182;28;20211;-76
2021/07/12 04:08:18;;;;;;;5.97;3.60;;;;;;;10.95;100.00;93512.72;5074279;28;20199;-76
2021/07/12 04:10:44;;;;;;;9.60;3.17;;;;;;;11.03;100.00;93508.03;5074126;28;20206;-76
2021/07/12 04:13:12;;;;;;;7.60;3.77;;;;;;;11.02;100.00;93500.41;5074125;28;20255;-76
2021/07/12 04:15:39;;;;;;;6.93;3.20;;;;;;;10.99;100.00;93504.25;5074081;28;20199;-75
2021/07/12 04:18:06;;;;;;;4.83;3.10;;;;;;;10.98;100.00;93502.66;5073996;28;20210;-75
2021/07/12 04:20:33;;;;;;;4.43;3.00;;;;;;;10.97;100.00;93508.88;5074070;28;20214;-76
2021/07/12 04:23:00;;;;;;;11.47;3.50;;;;;;;11.07;100.00;93496.19;5073965;28;20202;-76
2021/07/12 04:25:27;;;;;;;8.00;3.33;;;;;;;11.11;100.00;93502.56;5073693;28;20321;-76
2021/07/12 04:27:56;;;;;;;6.27;3.30;;;;;;;11.11;100.00;93504.41;5073633;28;20665;-76
2021/07/12 04:30:22;;;;;;;7.63;3.43;;;;;;;11.22;100.00;93501.09;5073216;28;20669;-75
2021/07/12 04:32:49;;;;;;;6.30;3.67;;;;;;;11.22;100.00;93505.53;5072813;28;20457;-76
2021/07/12 04:35:15;;;;;;;7.17;3.37;;;;;;;11.27;100.00;93503.91;5073789;28;20206;-75
2021/07/12 04:37:42;;;;;;;4.23;3.10;;;;;;;11.32;100.00;93513.69;5073774;28;20202;-75
2021/07/12 04:40:11;;;;;;;9.47;3.53;;;;;;;11.39;100.00;93511.03;5073431;28;20195;-75
2021/07/12 04:42:37;;;;;;;7.63;2.67;;;;;;;11.48;100.00;93509.78;5073431;28;20202;-76
2021/07/12 04:45:05;;;;;;;4.23;2.67;;;;;;;11.74;100.00;93508.78;5073372;28;20658;-76
2021/07/12 04:47:32;;;;;;;5.53;3.00;;;;;;;11.93;100.00;93501.00;5073368;28;20289;-76
2021/07/12 04:49:58;;;;;;;5.30;2.63;;;;;;;12.07;100.00;93502.47;5073521;28;20581;-75
2021/07/12 04:52:25;;;;;;;7.70;2.67;;;;;;;12.16;100.00;93501.16;5073343;28;20253;-76
2021/07/12 04:54:51;;;;;;;3.57;2.37;;;;;;;12.31;100.00;93500.81;5073325;28;20221;-76
2021/07/12 04:57:19;;;;;;;5.70;2.33;;;;;;;12.40;100.00;93494.25;5073266;28;20203;-75
2021/07/12 04:59:45;;;;;;;3.37;2.10;;;;;;;12.47;100.00;93499.41;5073103;28;20676;-76
2021/07/12 05:02:13;;;;;;;4.70;1.90;;;;;;;12.54;100.00;93505.41;5073427;28;20199;-76
2021/07/12 05:04:41;;;;;;;5.13;2.20;;;;;;;12.57;100.00;93510.22;5073326;28;20260;-76
2021/07/12 05:07:10;;;;;;;2.90;2.07;;;;;;;12.64;100.00;93514.53;5073247;28;20198;-75
2021/07/12 05:09:37;;;;;;;3.67;2.33;;;;;;;12.72;100.00;93516.88;5073081;28;20198;-75
2021/07/12 05:12:08;;;;;;;2.47;2.10;;;;;;;12.80;100.00;93518.41;5073000;28;20230;-75
2021/07/12 05:14:37;;;;;;;3.57;1.97;;;;;;;12.91;100.00;93517.66;5072956;28;20702;-76
2021/07/12 05:17:04;;;;;;;4.72;2.13;;;;;;;12.99;100.00;93516.53;5073196;28;20203;-76
2021/07/12 05:19:31;;;;;;;3.53;2.20;;;;;;;13.10;100.00;93521.03;5073118;28;20251;-76
2021/07/12 05:21:57;;;;;;;3.50;2.15;;;;;;;13.22;100.00;93521.91;5072561;28;20198;-76
2021/07/12 05:24:24;;;;;;;7.13;2.40;;;;;;;13.36;100.00;93521.75;5072977;28;20202;-75
2021/07/12 05:26:50;;;;;;;3.47;2.00;;;;;;;13.50;100.00;93520.50;5072719;28;20307;-76
2021/07/12 05:29:18;;;;;;;3.45;2.05;;;;;;;13.54;100.00;93508.56;5072967;28;20279;-76
2021/07/12 05:31:46;;;;;;;3.50;2.05;;;;;;;13.85;100.00;93499.56;5072917;28;20218;-76
2021/07/12 05:34:13;;;;;;;5.07;2.20;;;;;;;14.16;100.00;93494.22;5072990;28;20213;-76
2021/07/12 05:36:39;;;;;;;5.10;1.90;;;;;;;14.30;100.00;93492.94;5072963;28;20221;-75
2021/07/12 05:39:06;;;;;;;3.25;1.85;;;;;;;14.52;100.00;93485.28;5072818;28;20578;-75
2021/07/12 05:41:33;;;;;;;2.67;1.80;;;;;;;14.84;100.00;93495.38;5072650;28;20210;-76
2021/07/12 05:43:59;;;;;;;3.72;1.80;;;;;;;15.43;100.00;93497.75;5076994;28;20256;-75
2021/07/12 05:46:26;;;;;;;2.40;1.50;;;;;;;16.23;100.00;93490.59;5076849;28;20210;-75
2021/07/12 05:48:53;;;;;;;5.38;1.50;;;;;;;17.61;100.00;93498.50;5076962;28;20229;-75
2021/07/12 05:51:20;;;;;;;1.52;1.30;;;;;;;19.48;100.00;93492.13;5076660;28;20664;-75
2021/07/12 05:53:46;;;;;;;2.75;1.00;;;;;;;19.57;100.00;93493.19;5076746;28;20202;-75
2021/07/12 05:56:13;;;;;;;3.40;1.10;;;;;;;19.52;100.00;93489.78;5076646;28;20277;-75
2021/07/12 05:58:39;;;;;;;1.27;1.00;;;;;;;21.49;100.00;93491.75;5076825;28;20195;-75
2021/07/12 06:01:06;;;;;;;1.98;0.90;;;;;;;23.13;100.00;93492.94;5075369;28;20441;-75
2021/07/12 06:03:33;;;;;;;0.90;0.90;;;;;;;23.54;94.23;93497.72;5076624;28;20199;-76
2021/07/12 06:06:01;;;;;;;1.00;0.88;;;;;;;24.25;81.07;93487.06;5076569;28;20195;-75
2021/07/12 06:08:27;;;;;;;2.63;1.00;;;;;;;25.29;75.49;93478.75;5076509;28;20225;-75
2021/07/12 06:10:54;;;;;;;1.08;0.80;;;;;;;25.07;69.81;93477.56;5076296;28;20213;-74
2021/07/12 06:13:20;;;;;;;2.53;1.00;;;;;;;24.05;65.98;93474.06;5076373;28;20234;-74
2021/07/12 06:15:47;;;;;;;1.02;0.85;;;;;;;23.96;75.06;93458.72;5076194;28;20206;-76
2021/07/12 06:18:14;;;;;;;3.15;0.90;;;;;;;24.41;70.68;93458.22;5076371;28;20282;-77
2021/07/12 06:20:42;;;;;;;1.90;0.93;;;;;;;23.52;70.15;93462.59;5076242;28;20195;-76
2021/07/12 06:23:10;;;;;;;1.10;0.70;;;;;;;22.88;73.19;93457.53;5076078;28;20206;-77
2021/07/12 06:25:37;;;;;;;1.35;0.88;;;;;;;21.93;74.63;93453.69;5076104;28;20230;-76
2021/07/12 06:28:04;;;;;;;2.58;0.80;;;;;;;21.86;73.35;93447.91;5075629;28;20549;-77
2021/07/12 06:30:31;;;;;;;1.65;0.80;;;;;;;22.05;75.91;93442.69;5075928;28;20623;-76
2021/07/12 06:32:57;;;;;;;3.53;0.90;;;;;;;21.49;76.69;93425.34;5075845;28;20226;-76
2021/07/12 06:35:24;;;;;;;1.00;0.88;;;;;;;20.48;82.21;93407.78;5076003;28;20593;-75
2021/07/12 06:37:50;;;;;;;1.38;0.98;;;;;;;20.56;81.56;93406.44;5075855;28;20203;-75
2021/07/12 06:40:18;;;;;;;2.05;1.00;;;;;;;20.19;88.84;93415.56;5075745;28;20600;-75
2021/07/12 06:42:45;;;;;;;1.00;0.90;;;;;;;20.43;87.20;93416.53;5075827;28;20438;-76
2021/07/12 06:45:13;;;;;;;1.85;1.00;;;;;;;20.68;89.71;93402.44;5075712;28;20561;-76
2021/07/12 06:47:39;;;;;;;2.22;0.80;;;;;;;21.28;83.63;93398.88;5075651;28;20687;-75
2021/07/12 06:50:07;;;;;;;1.73;1.00;;;;;;;21.02;85.45;93406.25;5075630;28;20198;-76
2021/07/12 06:52:33;;;;;;;1.88;1.33;;;;;;;20.52;85.56;93398.22;5075721;28;20226;-76
2021/07/12 06:55:00;;;;;;;4.20;1.00;;;;;;;20.48;93.07;93400.63;5075045;28;20198;-75
2021/07/12 06:57:27;;;;;;;1.48;1.30;;;;;;;20.36;84.61;93402.78;5075671;28;20203;-74
2021/07/12 06:59:55;;;;;;;1.67;1.08;;;;;;;20.52;86.47;93392.94;5075587;28;20573;-77
2021/07/12 07:02:22;;;;;;;1.15;1.00;;;;;;;20.54;85.42;93393.44;5075545;28;20213;-77
2021/07/12 07:04:48;;;;;;;1.63;1.00;;;;;;;20.56;88.35;93387.88;5075349;28;20256;-77
2021/07/12 07:07:15;;;;;;;1.30;1.00;;;;;;;20.71;86.65;93385.16;5075646;28;20256;-75
2021/07/12 07:09:41;;;;;;;1.83;1.25;;;;;;;20.63;85.14;93378.59;5075445;28;20199;-75
2021/07/12 07:12:08;;;;;;;2.30;1.20;;;;;;;20.56;85.61;93375.38;5075335;28;20272;-76
2021/07/12 07:14:36;;;;;;;2.38;1.30;;;;;;;20.54;87.05;93369.56;5075384;28;20199;-77
2021/07/12 07:17:03;;;;;;;1.67;1.10;;;;;;;20.53;88.14;93373.28;5073954;28;20488;-76
2021/07/12 07:19:29;;;;;;;1.35;1.00;;;;;;;20.31;86.86;93358.50;5074725;28;20202;-75
2021/07/12 07:21:56;;;;;;;1.88;1.20;;;;;;;20.14;88.96;93360.72;5075274;28;20210;-76
2021/07/12 07:24:22;;;;;;;1.13;0.98;;;;;;;19.98;91.93;93343.25;5075202;28;20203;-76
2021/07/12 07:26:49;;;;;;;1.35;1.00;;;;;;;19.77;91.77;93343.31;5074879;28;20230;-76
2021/07/12 07:29:16;;;;;;;2.00;1.30;;;;;;;19.77;94.22;93341.44;5074920;28;20199;-76
2021/07/12 07:31:44;;;;;;;1.63;1.05;;;;;;;19.79;95.41;93333.25;5074778;28;20205;-76
2021/07/12 07:34:11;;;;;;;2.38;1.15;;;;;;;19.71;90.73;93325.81;5074788;28;20198;-76
2021/07/12 07:36:39;;;;;;;3.28;1.35;;;;;;;19.85;91.15;93318.94;5075167;28;20252;-76
2021/07/12 07:39:07;;;;;;;4.13;1.20;;;;;;;19.88;88.94;93313.06;5074861;28;20205;-76
2021/07/12 07:41:36;;;;;;;2.65;1.10;;;;;;;19.73;87.01;93310.44;5074813;28;20199;-75
2021/07/12 07:44:02;;;;;;;1.38;1.10;;;;;;;19.70;86.98;93317.06;5074656;28;20660;-75
2021/07/12 07:46:29;;;;;;;2.42;1.42;;;;;;;19.77;87.46;93316.81;5074569;28;20210;-76
2021/07/12 07:48:56;;;;;;;1.10;1.00;;;;;;;19.78;88.50;93313.91;5074566;28;20680;-77
2021/07/12 07:51:23;;;;;;;3.50;1.35;;;;;;;19.92;90.27;93308.03;5074685;28;20195;-76
2021/07/12 07:53:49;;;;;;;4.38;1.20;;;;;;;20.05;90.20;93299.53;5074389;28;20704;-76
2021/07/12 07:56:16;;;;;;;2.13;1.27;;;;;;;19.99;89.02;93305.09;5074567;28;20249;-75
2021/07/12 07:58:42;;;;;;;1.60;1.10;;;;;;;20.07;88.09;93309.84;5074471;28;20209;-76
2021/07/12 08:01:08;;;;;;;3.10;1.40;;;;;;;20.27;89.70;93311.63;5068783;28;20605;-78
2021/07/12 08:03:35;;;;;;;1.90;1.10;;;;;;;20.50;87.02;93315.47;5054253;28;20204;-76
2021/07/12 08:06:03;;;;;;;3.38;1.33;;;;;;;20.61;88.77;93321.53;5053139;28;20256;-78
2021/07/12 08:08:30;;;;;;;4.32;1.20;;;;;;;20.41;82.56;93317.91;5054286;28;20203;-78
2021/07/12 08:10:57;;;;;;;1.80;1.20;;;;;;;20.72;83.29;93316.97;5053353;28;20446;-77
2021/07/12 08:13:24;;;;;;;3.50;1.20;;;;;;;20.96;87.15;93323.19;5053835;28;20227;-77
2021/07/12 08:15:51;;;;;;;2.08;1.10;;;;;;;21.07;83.98;93318.63;5053897;28;20661;-76
2021/07/12 08:18:17;;;;;;;1.67;1.13;;;;;;;21.36;93.39;93318.63;5053841;28;20662;-77
2021/07/12 08:20:45;;;;;;;1.73;1.33;;;;;;;21.37;87.94;93322.88;5054078;28;20196;-79
2021/07/12 08:23:13;;;;;;;1.10;1.00;;;;;;;21.44;84.95;93323.34;5053846;28;20234;-74
2021/07/12 08:25:40;;;;;;;3.67;1.20;;;;;;;21.59;85.66;93341.03;5053593;28;20702;-76
2021/07/12 08:28:07;;;;;;;1.40;1.20;;;;;;;21.78;79.56;93343.81;5066303;28;20187;-76
2021/07/12 08:30:34;;;;;;;2.92;1.20;;;;;;;21.87;84.73;93357.25;5074011;28;20207;-75
2021/07/12 08:33:00;;;;;;;3.40;1.35;;;;;;;21.67;81.95;93352.94;5073468;28;20226;-77
2021/07/12 08:35:27;;;;;;;1.63;1.15;;;;;;;21.74;83.79;93352.59;5073801;28;20304;-78
2021/07/12 08:37:53;;;;;;;1.10;1.00;;;;;;;21.79;83.20;93355.22;5073691;28;20214;-77
2021/07/12 08:40:24;;;;;;;1.73;1.20;;;;;;;21.71;78.75;93364.56;5073477;28;20276;-76
2021/07/12 08:42:52;;;;;;;1.98;1.20;;;;;;;21.96;81.90;93354.78;5073311;28;20199;-76
2021/07/12 08:45:19;;;;;;;1.83;1.23;;;;;;;22.09;78.74;93348.78;5073391;28;20645;-76
2021/07/12 08:47:45;;;;;;;1.73;1.02;;;;;;;22.04;79.43;93346.19;5073540;28;20206;-77
2021/07/12 08:50:12;;;;;;;3.70;1.60;;;;;;;22.26;78.66;93334.25;5073499;28;20199;-75
2021/07/12 08:52:43;;;;;;;1.73;1.23;;;;;;;22.20;78.62;93322.88;5073178;28;20222;-76
2021/07/12 08:55:10;;;;;;;4.65;1.73;;;;;;;22.49;80.80;93314.84;5073278;28;20292;-75
2021/07/12 08:57:37;;;;;;;1.92;1.10;;;;;;;22.68;79.29;93322.03;5073142;28;20206;-77
2021/07/12 09:00:07;;;;;;;3.80;1.40;;;;;;;22.09;78.57;93305.47;5073359;28;20206;-77
2021/07/12 09:02:34;;;;;;;3.17;1.30;;;;;;;21.99;80.41;93303.72;5073050;28;20210;-76
2021/07/12 09:05:01;;;;;;;3.15;1.33;;;;;;;22.14;79.53;93306.19;5073170;28;20209;-76
2021/07/12 09:07:29;;;;;;;2.40;1.20;;;;;;;22.32;79.10;93306.56;5073100;28;20202;-76
2021/07/12 09:09:57;;;;;;;2.28;1.30;;;;;;;22.33;80.20;93305.47;5072594;28;20226;-76
2021/07/12 09:12:23;;;;;;;1.50;1.33;;;;;;;22.43;80.89;93321.31;5073112;28;20535;-76
2021/07/12 09:15:05;;;;;;;2.50;0.90;;;;;;;21.83;79.33;93316.34;5072962;28;20244;-76
2021/07/12 09:17:33;;;;;;;1.77;1.42;;;;;;;22.10;83.47;93322.97;5072713;28;20264;-76
2021/07/12 09:20:00;;;;;;;2.22;1.17;;;;;;;22.20;77.13;93314.09;5073061;28;20538;-77
2021/07/12 09:22:32;;;;;;;2.40;1.50;;;;;;;22.47;75.04;93311.66;5072880;28;20199;-76
2021/07/12 09:25:01;;;;;;;3.63;1.20;;;;;;;22.96;75.66;93311.53;5072807;28;20344;-76
2021/07/12 09:27:30;;;;;;;2.13;1.27;;;;;;;23.48;74.15;93306.22;5073160;28;20293;-74
2021/07/12 09:29:58;;;;;;;1.30;1.10;;;;;;;23.26;73.11;93311.13;5072766;28;20657;-76
2021/07/12 09:32:28;;;;;;;2.20;1.30;;;;;;;23.49;73.20;93297.94;5072792;28;20210;-75
2021/07/12 09:35:01;;;;;;;1.13;1.00;;;;;;;23.54;71.47;93289.06;5071409;28;20213;-75
2021/07/12 09:37:29;;;;;;;2.73;1.13;;;;;;;23.34;70.19;93291.00;5070629;28;20444;-75
2021/07/12 09:39:56;;;;;;;1.65;1.27;;;;;;;23.08;71.02;93293.25;5072362;28;20194;-75
2021/07/12 09:42:27;;;;;;;1.92;0.90;;;;;;;23.70;69.08;93279.72;5080727;28;20253;-75
2021/07/12 09:44:56;;;;;;;2.20;1.00;;;;;;;23.54;70.37;93283.75;5072742;28;20202;-78
2021/07/12 09:47:25;;;;;;;1.25;1.02;;;;;;;23.48;67.35;93277.69;5072642;28;20199;-78
2021/07/12 09:50:00;;;;;;;1.33;1.02;;;;;;;23.45;70.98;93278.31;5072632;28;20209;-75
2021/07/12 09:52:27;;;;;;;1.23;1.05;;;;;;;23.33;66.67;93260.13;5072655;28;20205;-76
2021/07/12 09:54:54;;;;;;;3.22;1.10;;;;;;;23.53;67.08;93274.97;5072760;28;20213;-74
2021/07/12 09:57:22;;;;;;;4.82;1.23;;;;;;;23.51;67.56;93279.78;5072721;28;20199;-76
2021/07/12 10:00:00;;;;;;;2.72;1.20;;;;;;;23.28;66.11;93284.97;5072495;28;20199;-78
2021/07/12 10:02:31;;;;;;;2.55;1.27;;;;;;;24.26;69.17;93288.53;5072549;28;20252;-78
2021/07/12 10:05:01;;;;;;;2.20;1.23;;;;;;;24.67;65.87;93298.38;5072750;28;20203;-76
2021/07/12 10:07:29;;;;;;;3.65;1.27;;;;;;;24.53;66.25;93305.59;5072438;28;20684;-77
2021/07/12 10:09:58;;;;;;;3.35;1.20;;;;;;;25.09;63.39;93303.59;5072460;28;20653;-77
2021/07/12 10:12:25;;;;;;;2.33;1.23;;;;;;;25.27;63.02;93309.91;5072215;28;20209;-77
2021/07/12 10:14:52;;;;;;;1.90;1.00;;;;;;;25.75;65.24;93319.94;5072273;28;20724;-76
2021/07/12 10:17:19;;;;;;;3.08;1.13;;;;;;;25.64;65.98;93316.72;5072592;28;20194;-77
2021/07/12 10:19:46;;;;;;;3.50;1.30;;;;;;;25.72;62.65;93319.78;5072396;28;20228;-76
2021/07/12 10:22:16;;;;;;;2.53;1.15;;;;;;;25.87;55.98;93318.59;5072288;28;20222;-76
2021/07/12 10:24:45;;;;;;;1.55;1.17;;;;;;;25.60;58.89;93309.66;5072430;28;20211;-76
2021/07/12 10:27:21;;;;;;;3.28;1.27;;;;;;;25.40;60.83;93313.63;5072102;28;20304;-77
2021/07/12 10:29:48;;;;;;;1.20;1.10;;;;;;;25.65;62.95;93314.88;5074308;28;20274;-76
2021/07/12 10:32:16;;;;;;;1.33;1.10;;;;;;;24.97;66.97;93304.16;5075970;28;20248;-75
2021/07/12 10:34:45;;;;;;;2.33;1.42;;;;;;;25.29;62.86;93313.06;5075919;28;20284;-76
2021/07/12 10:37:28;;;;;;;1.90;1.10;;;;;;;25.14;61.08;93322.19;5075739;28;20557;-75
2021/07/12 10:40:04;;;;;;;2.38;1.15;;;;;;;25.19;65.93;93313.28;5075774;28;20252;-75
2021/07/12 10:43:01;;;;;;;1.98;1.23;;;;;;;25.11;64.58;93320.13;5075629;28;20704;-76
2021/07/12 10:45:40;;;;;;;3.45;1.25;;;;;;;25.17;65.63;93326.16;5075799;28;20199;-76
2021/07/12 10:48:12;;;;;;;2.95;1.35;;;;;;;25.47;68.12;93322.75;5064740;28;20199;-76
2021/07/12 10:50:50;;;;;;;1.73;1.30;;;;;;;25.69;62.41;93315.03;5055661;28;20200;-76
2021/07/12 10:53:37;;;;;;;2.60;1.10;;;;;;;25.75;64.72;93316.50;5055644;28;20235;-80
2021/07/12 10:56:16;;;;;;;3.33;1.20;;;;;;;24.90;64.72;93319.81;5055479;28;20207;-77
2021/07/12 10:58:47;;;;;;;1.10;1.00;;;;;;;25.84;63.18;93311.97;5065392;28;20203;-76
2021/07/12 11:01:19;;;;;;;2.63;1.15;;;;;;;25.46;64.45;93318.53;5075184;28;20252;-80
2021/07/12 11:03:49;;;;;;;3.10;1.13;;;;;;;25.67;63.41;93312.66;5075289;28;20199;-75
2021/07/12 11:06:17;;;;;;;2.75;1.58;;;;;;;25.33;60.47;93311.38;5075256;28;20201;-76
2021/07/12 11:08:47;;;;;;;2.92;1.40;;;;;;;25.75;58.80;93309.25;5075390;28;20202;-76
2021/07/12 11:11:40;;;;;;;1.42;1.10;;;;;;;25.70;59.57;93296.00;5075297;28;20194;-76
2021/07/12 11:14:08;;;;;;;3.75;1.02;;;;;;;25.56;62.40;93284.59;5075219;28;20230;-76
2021/07/12 11:16:41;;;;;;;2.40;1.25;;;;;;;26.17;66.08;93280.31;5075188;28;20608;-76
2021/07/12 11:19:24;;;;;;;2.25;1.30;;;;;;;26.25;66.35;93277.97;5075212;28;20202;-75
2021/07/12 11:21:51;;;;;;;2.63;1.15;;;;;;;25.88;64.67;93269.31;5075105;28;20230;-76
2021/07/12 11:24:20;;;;;;;2.22;1.27;;;;;;;25.97;63.46;93264.84;5075135;28;20225;-75
2021/07/12 11:26:50;;;;;;;2.45;1.38;;;;;;;25.93;63.92;93261.16;5074925;28;20227;-75
2021/07/12 11:29:33;;;;;;;1.80;1.23;;;;;;;25.66;60.61;93269.09;5074917;28;20199;-75
2021/07/12 11:32:15;;;;;;;1.48;1.15;;;;;;;25.52;64.81;93262.25;5074943;28;20207;-75
2021/07/12 11:34:52;;;;;;;1.42;1.25;;;;;;;25.74;62.95;93270.22;5074859;28;20223;-76
2021/07/12 11:37:22;;;;;;;3.38;1.13;;;;;;;26.04;61.34;93267.84;5074808;28;20220;-76